sensor_id;sensor_type;location;lat;lon;timestamp;temperature;humidity
40676;DHT22;26359;48.750;9.314;2023-11-21T00:00:20;8.60;99.90
40676;DHT22;26359;48.750;9.314;2023-11-21T00:02:46;8.60;99.90
40676;DHT22;26359;48.750;9.314;2023-11-21T00:05:13;8.60;99.90
40676;DHT22;26359;48.750;9.314;2023-11-21T00:07:43;8.60;99.90
40676;DHT22;26359;48.750;9.314;2023-11-21T00:10:10;8.60;99.90
40676;DHT22;26359;48.750;9.314;2023-11-21T00:12:36;8.60;99.90
40676;DHT22;26359;48.750;9.314;2023-11-21T00:15:03;8.60;99.90
40676;DHT22;26359;48.750;9.314;2023-11-21T00:17:30;8.60;99.90
40676;DHT22;26359;48.750;9.314;2023-11-21T00:19:56;8.50;99.90
40676;DHT22;26359;48.750;9.314;2023-11-21T00:22:21;8.60;99.90
40676;DHT22;26359;48.750;9.314;2023-11-21T00:24:47;8.50;99.90
40676;DHT22;26359;48.750;9.314;2023-11-21T00:27:13;8.50;99.90
40676;DHT22;26359;48.750;9.314;2023-11-21T00:29:39;8.50;99.90
40676;DHT22;26359;48.750;9.314;2023-11-21T00:32:05;8.40;99.90
40676;DHT22;26359;48.750;9.314;2023-11-21T00:34:32;8.40;99.90
40676;DHT22;26359;48.750;9.314;2023-11-21T00:36:57;8.40;99.90
40676;DHT22;26359;48.750;9.314;2023-11-21T00:39:23;8.40;99.90
40676;DHT22;26359;48.750;9.314;2023-11-21T00:41:49;8.40;99.90
40676;DHT22;26359;48.750;9.314;2023-11-21T00:44:15;8.50;99.90
40676;DHT22;26359;48.750;9.314;2023-11-21T00:46:41;8.40;99.90
40676;DHT22;26359;48.750;9.314;2023-11-21T00:49:07;8.40;99.90
40676;DHT22;26359;48.750;9.314;2023-11-21T00:51:33;8.50;99.90
40676;DHT22;26359;48.750;9.314;2023-11-21T00:53:58;8.50;99.90
40676;DHT22;26359;48.750;9.314;2023-11-21T00:56:24;8.50;99.90
40676;DHT22;26359;48.750;9.314;2023-11-21T00:58:49;8.60;99.90
40676;DHT22;26359;48.750;9.314;2023-11-21T01:01:18;8.60;99.90
40676;DHT22;26359;48.750;9.314;2023-11-21T01:03:46;8.60;99.90
40676;DHT22;26359;48.750;9.314;2023-11-21T01:06:11;8.50;99.90
40676;DHT22;26359;48.750;9.314;2023-11-21T01:08:37;8.60;99.90
40676;DHT22;26359;48.750;9.314;2023-11-21T01:11:02;8.60;99.90
40676;DHT22;26359;48.750;9.314;2023-11-21T01:13:28;8.60;99.90
40676;DHT22;26359;48.750;9.314;2023-11-21T01:15:55;8.60;99.90
40676;DHT22;26359;48.750;9.314;2023-11-21T01:18:21;8.60;99.90
40676;DHT22;26359;48.750;9.314;2023-11-21T01:20:46;8.60;99.90
40676;DHT22;26359;48.750;9.314;2023-11-21T01:23:13;8.60;99.90
40676;DHT22;26359;48.750;9.314;2023-11-21T01:25:38;8.60;99.90
40676;DHT22;26359;48.750;9.314;2023-11-21T01:28:04;8.60;99.90
40676;DHT22;26359;48.750;9.314;2023-11-21T01:30:29;8.60;99.90
40676;DHT22;26359;48.750;9.314;2023-11-21T01:32:55;8.60;99.90
40676;DHT22;26359;48.750;9.314;2023-11-21T01:35:20;8.70;99.90
40676;DHT22;26359;48.750;9.314;2023-11-21T01:37:46;8.60;99.90
40676;DHT22;26359;48.750;9.314;2023-11-21T01:40:13;8.60;99.90
40676;DHT22;26359;48.750;9.314;2023-11-21T01:42:40;8.60;99.90
40676;DHT22;26359;48.750;9.314;2023-11-21T01:45:06;8.70;99.90
40676;DHT22;26359;48.750;9.314;2023-11-21T01:47:34;8.70;99.90
40676;DHT22;26359;48.750;9.314;2023-11-21T01:50:05;8.60;99.90
40676;DHT22;26359;48.750;9.314;2023-11-21T01:52:32;8.60;99.90
40676;DHT22;26359;48.750;9.314;2023-11-21T01:54:59;8.60;99.90
40676;DHT22;26359;48.750;9.314;2023-11-21T01:57:25;8.60;99.90
40676;DHT22;26359;48.750;9.314;2023-11-21T01:59:51;8.60;99.90
40676;DHT22;26359;48.750;9.314;2023-11-21T02:02:19;8.70;99.90
40676;DHT22;26359;48.750;9.314;2023-11-21T02:04:45;8.70;99.90
40676;DHT22;26359;48.750;9.314;2023-11-21T02:07:10;8.70;99.90
40676;DHT22;26359;48.750;9.314;2023-11-21T02:09:36;8.70;99.90
40676;DHT22;26359;48.750;9.314;2023-11-21T02:12:04;8.70;99.90
40676;DHT22;26359;48.750;9.314;2023-11-21T02:14:30;8.70;99.90
40676;DHT22;26359;48.750;9.314;2023-11-21T02:16:56;8.70;99.90
40676;DHT22;26359;48.750;9.314;2023-11-21T02:19:26;8.70;99.90
40676;DHT22;26359;48.750;9.314;2023-11-21T02:21:52;8.70;99.90
40676;DHT22;26359;48.750;9.314;2023-11-21T02:24:22;8.80;99.90
40676;DHT22;26359;48.750;9.314;2023-11-21T02:26:51;8.80;99.90
40676;DHT22;26359;48.750;9.314;2023-11-21T02:29:17;8.80;99.90
40676;DHT22;26359;48.750;9.314;2023-11-21T02:31:45;8.70;99.90
40676;DHT22;26359;48.750;9.314;2023-11-21T02:34:17;8.80;99.90
40676;DHT22;26359;48.750;9.314;2023-11-21T02:36:44;8.80;99.90
40676;DHT22;26359;48.750;9.314;2023-11-21T02:39:10;8.70;99.90
40676;DHT22;26359;48.750;9.314;2023-11-21T02:41:37;8.70;99.90
40676;DHT22;26359;48.750;9.314;2023-11-21T02:44:07;8.70;99.90
40676;DHT22;26359;48.750;9.314;2023-11-21T02:46:34;8.70;99.90
40676;DHT22;26359;48.750;9.314;2023-11-21T02:49:03;8.70;99.90
40676;DHT22;26359;48.750;9.314;2023-11-21T02:51:29;8.70;99.90
40676;DHT22;26359;48.750;9.314;2023-11-21T02:53:55;8.70;99.90
40676;DHT22;26359;48.750;9.314;2023-11-21T02:56:25;8.70;99.90
40676;DHT22;26359;48.750;9.314;2023-11-21T02:58:51;8.70;99.90
40676;DHT22;26359;48.750;9.314;2023-11-21T03:01:16;8.70;99.90
40676;DHT22;26359;48.750;9.314;2023-11-21T03:03:42;8.70;99.90
40676;DHT22;26359;48.750;9.314;2023-11-21T03:06:08;8.70;99.90
40676;DHT22;26359;48.750;9.314;2023-11-21T03:08:34;8.70;99.90
40676;DHT22;26359;48.750;9.314;2023-11-21T03:11:00;8.80;99.90
40676;DHT22;26359;48.750;9.314;2023-11-21T03:13:25;8.70;99.90
40676;DHT22;26359;48.750;9.314;2023-11-21T03:15:51;8.80;99.90
40676;DHT22;26359;48.750;9.314;2023-11-21T03:18:16;8.80;99.90
40676;DHT22;26359;48.750;9.314;2023-11-21T03:20:43;8.70;99.90
40676;DHT22;26359;48.750;9.314;2023-11-21T03:23:11;8.70;99.90
40676;DHT22;26359;48.750;9.314;2023-11-21T03:25:37;8.70;99.90
40676;DHT22;26359;48.750;9.314;2023-11-21T03:28:02;8.70;99.90
40676;DHT22;26359;48.750;9.314;2023-11-21T03:30:28;8.70;99.90
40676;DHT22;26359;48.750;9.314;2023-11-21T03:32:54;8.70;99.90
40676;DHT22;26359;48.750;9.314;2023-11-21T03:35:19;8.70;99.90
40676;DHT22;26359;48.750;9.314;2023-11-21T03:37:46;8.70;99.90
40676;DHT22;26359;48.750;9.314;2023-11-21T03:40:12;8.70;99.90
40676;DHT22;26359;48.750;9.314;2023-11-21T03:42:38;8.70;99.90
40676;DHT22;26359;48.750;9.314;2023-11-21T03:45:05;8.70;99.90
40676;DHT22;26359;48.750;9.314;2023-11-21T03:47:31;8.70;99.90
40676;DHT22;26359;48.750;9.314;2023-11-21T03:49:56;8.70;99.90
40676;DHT22;26359;48.750;9.314;2023-11-21T03:52:22;8.70;99.90
40676;DHT22;26359;48.750;9.314;2023-11-21T03:54:47;8.80;99.90
40676;DHT22;26359;48.750;9.314;2023-11-21T03:57:13;8.70;99.90
40676;DHT22;26359;48.750;9.314;2023-11-21T03:59:42;8.70;99.90
40676;DHT22;26359;48.750;9.314;2023-11-21T04:02:09;8.80;99.90
40676;DHT22;26359;48.750;9.314;2023-11-21T04:04:35;8.80;99.90
40676;DHT22;26359;48.750;9.314;2023-11-21T04:07:01;8.70;99.90
40676;DHT22;26359;48.750;9.314;2023-11-21T04:09:27;8.70;99.90
40676;DHT22;26359;48.750;9.314;2023-11-21T04:11:52;8.70;99.90
40676;DHT22;26359;48.750;9.314;2023-11-21T04:14:18;8.60;99.90
40676;DHT22;26359;48.750;9.314;2023-11-21T04:16:44;8.70;99.90
40676;DHT22;26359;48.750;9.314;2023-11-21T04:19:09;8.70;99.90
40676;DHT22;26359;48.750;9.314;2023-11-21T04:21:43;8.60;99.90
40676;DHT22;26359;48.750;9.314;2023-11-21T04:24:09;8.70;99.90
40676;DHT22;26359;48.750;9.314;2023-11-21T04:26:35;8.60;99.90
40676;DHT22;26359;48.750;9.314;2023-11-21T04:29:01;8.60;99.90
40676;DHT22;26359;48.750;9.314;2023-11-21T04:31:27;8.60;99.90
40676;DHT22;26359;48.750;9.314;2023-11-21T04:33:52;8.50;99.90
40676;DHT22;26359;48.750;9.314;2023-11-21T04:36:19;8.50;99.90
40676;DHT22;26359;48.750;9.314;2023-11-21T04:38:45;8.40;99.90
40676;DHT22;26359;48.750;9.314;2023-11-21T04:41:10;8.30;99.90
40676;DHT22;26359;48.750;9.314;2023-11-21T04:43:37;8.30;99.90
40676;DHT22;26359;48.750;9.314;2023-11-21T04:46:02;8.30;99.90
40676;DHT22;26359;48.750;9.314;2023-11-21T04:48:28;8.30;99.90
40676;DHT22;26359;48.750;9.314;2023-11-21T04:50:53;8.40;99.90
40676;DHT22;26359;48.750;9.314;2023-11-21T04:53:19;8.30;99.90
40676;DHT22;26359;48.750;9.314;2023-11-21T04:55:45;8.40;99.90
40676;DHT22;26359;48.750;9.314;2023-11-21T04:58:11;8.40;99.90
40676;DHT22;26359;48.750;9.314;2023-11-21T05:00:37;8.50;99.90
40676;DHT22;26359;48.750;9.314;2023-11-21T05:03:03;8.50;99.90
40676;DHT22;26359;48.750;9.314;2023-11-21T05:05:29;8.50;99.90
40676;DHT22;26359;48.750;9.314;2023-11-21T05:07:55;8.40;99.90
40676;DHT22;26359;48.750;9.314;2023-11-21T05:10:21;8.40;99.90
40676;DHT22;26359;48.750;9.314;2023-11-21T05:12:48;8.40;99.90
40676;DHT22;26359;48.750;9.314;2023-11-21T05:15:15;8.30;99.90
40676;DHT22;26359;48.750;9.314;2023-11-21T05:17:41;8.30;99.90
40676;DHT22;26359;48.750;9.314;2023-11-21T05:20:08;8.20;99.90
40676;DHT22;26359;48.750;9.314;2023-11-21T05:22:35;8.30;99.90
40676;DHT22;26359;48.750;9.314;2023-11-21T05:25:02;8.30;99.90
40676;DHT22;26359;48.750;9.314;2023-11-21T05:27:31;8.30;99.90
40676;DHT22;26359;48.750;9.314;2023-11-21T05:29:57;8.30;99.90
40676;DHT22;26359;48.750;9.314;2023-11-21T05:32:24;8.30;99.90
40676;DHT22;26359;48.750;9.314;2023-11-21T05:34:50;8.30;99.90
40676;DHT22;26359;48.750;9.314;2023-11-21T05:37:15;8.30;99.90
40676;DHT22;26359;48.750;9.314;2023-11-21T05:39:42;8.30;99.90
40676;DHT22;26359;48.750;9.314;2023-11-21T05:42:08;8.30;99.90
40676;DHT22;26359;48.750;9.314;2023-11-21T05:44:36;8.40;99.90
40676;DHT22;26359;48.750;9.314;2023-11-21T05:47:02;8.40;99.90
40676;DHT22;26359;48.750;9.314;2023-11-21T05:49:29;8.40;99.90
40676;DHT22;26359;48.750;9.314;2023-11-21T05:51:55;8.40;99.90
40676;DHT22;26359;48.750;9.314;2023-11-21T05:54:21;8.40;99.90
40676;DHT22;26359;48.750;9.314;2023-11-21T05:56:47;8.40;99.90
40676;DHT22;26359;48.750;9.314;2023-11-21T05:59:12;8.40;99.90
40676;DHT22;26359;48.750;9.314;2023-11-21T06:01:38;8.30;99.90
40676;DHT22;26359;48.750;9.314;2023-11-21T06:04:04;8.30;99.90
40676;DHT22;26359;48.750;9.314;2023-11-21T06:06:30;8.40;99.90
40676;DHT22;26359;48.750;9.314;2023-11-21T06:08:57;8.40;99.90
40676;DHT22;26359;48.750;9.314;2023-11-21T06:11:22;8.30;99.90
40676;DHT22;26359;48.750;9.314;2023-11-21T06:13:50;8.30;99.90
40676;DHT22;26359;48.750;9.314;2023-11-21T06:16:15;8.30;99.90
40676;DHT22;26359;48.750;9.314;2023-11-21T06:18:44;8.30;99.90
40676;DHT22;26359;48.750;9.314;2023-11-21T06:21:10;8.30;99.90
40676;DHT22;26359;48.750;9.314;2023-11-21T06:23:36;8.30;99.90
40676;DHT22;26359;48.750;9.314;2023-11-21T06:26:01;8.30;99.90
40676;DHT22;26359;48.750;9.314;2023-11-21T06:28:27;8.30;99.90
40676;DHT22;26359;48.750;9.314;2023-11-21T06:30:52;8.30;99.90
40676;DHT22;26359;48.750;9.314;2023-11-21T06:33:18;8.20;99.90
40676;DHT22;26359;48.750;9.314;2023-11-21T06:35:44;8.20;99.90
40676;DHT22;26359;48.750;9.314;2023-11-21T06:38:10;8.20;99.90
40676;DHT22;26359;48.750;9.314;2023-11-21T06:40:35;8.30;99.90
40676;DHT22;26359;48.750;9.314;2023-11-21T06:43:01;8.30;99.90
40676;DHT22;26359;48.750;9.314;2023-11-21T06:45:27;8.30;99.90
40676;DHT22;26359;48.750;9.314;2023-11-21T06:47:53;8.30;99.90
40676;DHT22;26359;48.750;9.314;2023-11-21T06:50:18;8.20;99.90
40676;DHT22;26359;48.750;9.314;2023-11-21T06:52:44;8.30;99.90
40676;DHT22;26359;48.750;9.314;2023-11-21T06:55:09;8.20;99.90
40676;DHT22;26359;48.750;9.314;2023-11-21T06:57:36;8.30;99.90
40676;DHT22;26359;48.750;9.314;2023-11-21T07:00:02;8.20;99.90
40676;DHT22;26359;48.750;9.314;2023-11-21T07:02:28;8.30;99.90
40676;DHT22;26359;48.750;9.314;2023-11-21T07:04:54;8.30;99.90
40676;DHT22;26359;48.750;9.314;2023-11-21T07:07:19;8.40;99.90
40676;DHT22;26359;48.750;9.314;2023-11-21T07:09:45;8.40;99.90
40676;DHT22;26359;48.750;9.314;2023-11-21T07:12:10;8.40;99.90
40676;DHT22;26359;48.750;9.314;2023-11-21T07:14:36;8.50;99.90
40676;DHT22;26359;48.750;9.314;2023-11-21T07:17:04;8.50;99.90
40676;DHT22;26359;48.750;9.314;2023-11-21T07:19:30;8.50;99.90
40676;DHT22;26359;48.750;9.314;2023-11-21T07:21:56;8.50;99.90
40676;DHT22;26359;48.750;9.314;2023-11-21T07:24:21;8.50;99.90
40676;DHT22;26359;48.750;9.314;2023-11-21T07:26:48;8.50;99.90
40676;DHT22;26359;48.750;9.314;2023-11-21T07:29:14;8.50;99.90
40676;DHT22;26359;48.750;9.314;2023-11-21T07:31:39;8.50;99.90
40676;DHT22;26359;48.750;9.314;2023-11-21T07:34:06;8.50;99.90
40676;DHT22;26359;48.750;9.314;2023-11-21T07:36:33;8.50;99.90
40676;DHT22;26359;48.750;9.314;2023-11-21T07:38:59;8.60;99.90
40676;DHT22;26359;48.750;9.314;2023-11-21T07:41:24;8.60;99.90
40676;DHT22;26359;48.750;9.314;2023-11-21T07:43:50;8.60;99.90
40676;DHT22;26359;48.750;9.314;2023-11-21T07:46:15;8.60;99.90
40676;DHT22;26359;48.750;9.314;2023-11-21T07:48:42;8.60;99.90
40676;DHT22;26359;48.750;9.314;2023-11-21T07:51:08;8.60;99.90
40676;DHT22;26359;48.750;9.314;2023-11-21T07:53:34;8.60;99.90
40676;DHT22;26359;48.750;9.314;2023-11-21T07:56:07;8.60;99.90
40676;DHT22;26359;48.750;9.314;2023-11-21T07:58:36;8.60;99.90
40676;DHT22;26359;48.750;9.314;2023-11-21T08:01:02;8.70;99.90
40676;DHT22;26359;48.750;9.314;2023-11-21T08:03:28;8.70;99.90
40676;DHT22;26359;48.750;9.314;2023-11-21T08:05:55;8.70;99.90
40676;DHT22;26359;48.750;9.314;2023-11-21T08:08:21;8.70;99.90
40676;DHT22;26359;48.750;9.314;2023-11-21T08:10:47;8.80;99.90
40676;DHT22;26359;48.750;9.314;2023-11-21T08:13:13;8.70;99.90
40676;DHT22;26359;48.750;9.314;2023-11-21T08:15:41;8.70;99.90
40676;DHT22;26359;48.750;9.314;2023-11-21T08:18:10;8.70;99.90
40676;DHT22;26359;48.750;9.314;2023-11-21T08:20:36;8.70;99.90
40676;DHT22;26359;48.750;9.314;2023-11-21T08:23:03;8.70;99.90
40676;DHT22;26359;48.750;9.314;2023-11-21T08:25:31;8.80;99.90
40676;DHT22;26359;48.750;9.314;2023-11-21T08:27:57;8.80;99.90
40676;DHT22;26359;48.750;9.314;2023-11-21T08:30:22;8.80;99.90
40676;DHT22;26359;48.750;9.314;2023-11-21T08:32:49;8.80;99.90
40676;DHT22;26359;48.750;9.314;2023-11-21T08:35:16;8.70;99.90
40676;DHT22;26359;48.750;9.314;2023-11-21T08:37:42;8.80;99.90
40676;DHT22;26359;48.750;9.314;2023-11-21T08:40:08;8.80;99.90
40676;DHT22;26359;48.750;9.314;2023-11-21T08:42:37;8.80;99.90
40676;DHT22;26359;48.750;9.314;2023-11-21T08:45:04;8.80;99.90
40676;DHT22;26359;48.750;9.314;2023-11-21T08:47:29;8.80;99.90
40676;DHT22;26359;48.750;9.314;2023-11-21T08:49:55;8.80;99.90
40676;DHT22;26359;48.750;9.314;2023-11-21T08:52:21;8.80;99.90
40676;DHT22;26359;48.750;9.314;2023-11-21T08:54:49;8.80;99.90
40676;DHT22;26359;48.750;9.314;2023-11-21T08:57:22;8.80;99.90
40676;DHT22;26359;48.750;9.314;2023-11-21T08:59:47;8.80;99.90
40676;DHT22;26359;48.750;9.314;2023-11-21T09:02:13;8.90;99.90
40676;DHT22;26359;48.750;9.314;2023-11-21T09:04:38;8.90;99.90
40676;DHT22;26359;48.750;9.314;2023-11-21T09:07:04;9.00;99.90
40676;DHT22;26359;48.750;9.314;2023-11-21T09:09:30;9.00;99.90
40676;DHT22;26359;48.750;9.314;2023-11-21T09:11:56;9.20;99.90
40676;DHT22;26359;48.750;9.314;2023-11-21T09:14:21;9.20;99.90
40676;DHT22;26359;48.750;9.314;2023-11-21T09:16:47;9.20;99.90
40676;DHT22;26359;48.750;9.314;2023-11-21T09:19:12;9.20;99.90
40676;DHT22;26359;48.750;9.314;2023-11-21T09:21:39;9.30;99.90
40676;DHT22;26359;48.750;9.314;2023-11-21T09:24:05;9.20;99.90
40676;DHT22;26359;48.750;9.314;2023-11-21T09:26:31;9.30;99.90
40676;DHT22;26359;48.750;9.314;2023-11-21T09:28:56;9.20;99.90
40676;DHT22;26359;48.750;9.314;2023-11-21T09:31:22;9.30;99.90
40676;DHT22;26359;48.750;9.314;2023-11-21T09:33:49;9.40;99.90
40676;DHT22;26359;48.750;9.314;2023-11-21T09:36:14;9.50;99.90
40676;DHT22;26359;48.750;9.314;2023-11-21T09:38:40;9.50;99.90
40676;DHT22;26359;48.750;9.314;2023-11-21T09:41:34;9.50;99.90
40676;DHT22;26359;48.750;9.314;2023-11-21T09:44:09;9.70;99.90
40676;DHT22;26359;48.750;9.314;2023-11-21T09:46:41;9.70;99.90
40676;DHT22;26359;48.750;9.314;2023-11-21T09:49:09;9.80;99.90
40676;DHT22;26359;48.750;9.314;2023-11-21T09:51:39;9.80;99.90
40676;DHT22;26359;48.750;9.314;2023-11-21T09:54:07;9.90;99.90
40676;DHT22;26359;48.750;9.314;2023-11-21T09:56:34;9.80;99.90
40676;DHT22;26359;48.750;9.314;2023-11-21T09:59:01;9.90;99.90
40676;DHT22;26359;48.750;9.314;2023-11-21T10:01:32;10.00;99.90
40676;DHT22;26359;48.750;9.314;2023-11-21T10:03:58;10.00;99.90
40676;DHT22;26359;48.750;9.314;2023-11-21T10:06:26;10.00;99.90
40676;DHT22;26359;48.750;9.314;2023-11-21T10:08:53;9.90;99.90
40676;DHT22;26359;48.750;9.314;2023-11-21T10:11:20;9.90;99.90
40676;DHT22;26359;48.750;9.314;2023-11-21T10:13:47;9.90;99.90
40676;DHT22;26359;48.750;9.314;2023-11-21T10:16:19;9.80;99.90
40676;DHT22;26359;48.750;9.314;2023-11-21T10:18:48;9.90;99.90
40676;DHT22;26359;48.750;9.314;2023-11-21T10:21:15;10.00;99.90
40676;DHT22;26359;48.750;9.314;2023-11-21T10:23:40;10.00;99.90
40676;DHT22;26359;48.750;9.314;2023-11-21T10:26:07;10.00;99.90
40676;DHT22;26359;48.750;9.314;2023-11-21T10:28:36;10.00;99.90
40676;DHT22;26359;48.750;9.314;2023-11-21T10:31:06;10.00;99.90
40676;DHT22;26359;48.750;9.314;2023-11-21T10:33:32;10.10;99.90
40676;DHT22;26359;48.750;9.314;2023-11-21T10:35:58;10.10;99.90
40676;DHT22;26359;48.750;9.314;2023-11-21T10:38:25;10.00;99.90
40676;DHT22;26359;48.750;9.314;2023-11-21T10:40:52;10.20;99.90
40676;DHT22;26359;48.750;9.314;2023-11-21T10:43:20;10.20;99.90
40676;DHT22;26359;48.750;9.314;2023-11-21T10:45:49;10.20;99.90
40676;DHT22;26359;48.750;9.314;2023-11-21T10:48:15;10.20;99.90
40676;DHT22;26359;48.750;9.314;2023-11-21T10:50:41;10.10;99.90
40676;DHT22;26359;48.750;9.314;2023-11-21T10:53:07;10.10;99.90
40676;DHT22;26359;48.750;9.314;2023-11-21T10:55:33;10.10;99.90
40676;DHT22;26359;48.750;9.314;2023-11-21T10:58:01;10.10;99.90
40676;DHT22;26359;48.750;9.314;2023-11-21T11:00:28;10.10;99.90
40676;DHT22;26359;48.750;9.314;2023-11-21T11:02:55;10.00;99.90
40676;DHT22;26359;48.750;9.314;2023-11-21T11:05:22;9.90;99.90
40676;DHT22;26359;48.750;9.314;2023-11-21T11:08:08;9.90;99.90
40676;DHT22;26359;48.750;9.314;2023-11-21T11:10:37;9.90;99.90
40676;DHT22;26359;48.750;9.314;2023-11-21T11:13:03;9.80;99.90
40676;DHT22;26359;48.750;9.314;2023-11-21T11:15:29;9.80;99.90
40676;DHT22;26359;48.750;9.314;2023-11-21T11:17:55;9.80;99.90
40676;DHT22;26359;48.750;9.314;2023-11-21T11:20:27;9.80;99.90
40676;DHT22;26359;48.750;9.314;2023-11-21T11:25:48;9.60;99.90
40676;DHT22;26359;48.750;9.314;2023-11-21T11:28:19;9.50;99.90
40676;DHT22;26359;48.750;9.314;2023-11-21T11:36:42;9.50;99.90
40676;DHT22;26359;48.750;9.314;2023-11-21T11:39:31;9.50;99.90
40676;DHT22;26359;48.750;9.314;2023-11-21T11:42:03;9.60;99.90
40676;DHT22;26359;48.750;9.314;2023-11-21T11:47:15;9.70;99.90
40676;DHT22;26359;48.750;9.314;2023-11-21T11:50:00;9.80;99.90
40676;DHT22;26359;48.750;9.314;2023-11-21T11:52:47;9.80;99.90
40676;DHT22;26359;48.750;9.314;2023-11-21T11:55:15;9.80;99.90
40676;DHT22;26359;48.750;9.314;2023-11-21T11:57:45;9.80;99.90
40676;DHT22;26359;48.750;9.314;2023-11-21T12:00:21;9.80;99.90
40676;DHT22;26359;48.750;9.314;2023-11-21T12:02:59;9.90;99.90
40676;DHT22;26359;48.750;9.314;2023-11-21T12:05:28;9.90;99.90
40676;DHT22;26359;48.750;9.314;2023-11-21T12:07:56;10.00;99.90
40676;DHT22;26359;48.750;9.314;2023-11-21T12:10:24;10.10;99.90
40676;DHT22;26359;48.750;9.314;2023-11-21T12:12:52;10.20;99.90
40676;DHT22;26359;48.750;9.314;2023-11-21T12:15:18;10.40;99.90
40676;DHT22;26359;48.750;9.314;2023-11-21T12:17:45;10.50;99.90
40676;DHT22;26359;48.750;9.314;2023-11-21T12:20:12;10.50;99.90
40676;DHT22;26359;48.750;9.314;2023-11-21T12:22:53;10.50;99.90
40676;DHT22;26359;48.750;9.314;2023-11-21T12:25:24;10.60;99.90
40676;DHT22;26359;48.750;9.314;2023-11-21T12:27:53;10.60;99.90
40676;DHT22;26359;48.750;9.314;2023-11-21T12:30:20;10.60;99.90
40676;DHT22;26359;48.750;9.314;2023-11-21T12:32:54;10.60;99.90
40676;DHT22;26359;48.750;9.314;2023-11-21T12:35:23;10.60;99.90
40676;DHT22;26359;48.750;9.314;2023-11-21T12:37:51;10.60;99.90
40676;DHT22;26359;48.750;9.314;2023-11-21T12:40:17;10.50;99.90
40676;DHT22;26359;48.750;9.314;2023-11-21T12:42:48;10.50;99.90
40676;DHT22;26359;48.750;9.314;2023-11-21T12:47:47;10.60;99.90
40676;DHT22;26359;48.750;9.314;2023-11-21T12:50:24;10.60;99.90
40676;DHT22;26359;48.750;9.314;2023-11-21T12:52:54;10.50;99.90
40676;DHT22;26359;48.750;9.314;2023-11-21T12:55:21;10.50;99.90
40676;DHT22;26359;48.750;9.314;2023-11-21T12:57:51;10.50;99.90
40676;DHT22;26359;48.750;9.314;2023-11-21T13:00:18;10.50;99.90
40676;DHT22;26359;48.750;9.314;2023-11-21T13:02:56;10.60;99.90
40676;DHT22;26359;48.750;9.314;2023-11-21T13:05:28;10.60;99.90
40676;DHT22;26359;48.750;9.314;2023-11-21T13:07:55;10.80;99.90
40676;DHT22;26359;48.750;9.314;2023-11-21T13:10:24;10.90;99.90
40676;DHT22;26359;48.750;9.314;2023-11-21T13:12:52;11.10;99.90
40676;DHT22;26359;48.750;9.314;2023-11-21T13:15:18;11.20;99.90
40676;DHT22;26359;48.750;9.314;2023-11-21T13:17:44;11.50;99.90
40676;DHT22;26359;48.750;9.314;2023-11-21T13:20:11;11.80;99.90
40676;DHT22;26359;48.750;9.314;2023-11-21T13:22:54;12.00;99.90
40676;DHT22;26359;48.750;9.314;2023-11-21T13:25:29;12.30;99.90
40676;DHT22;26359;48.750;9.314;2023-11-21T13:27:55;12.40;99.90
40676;DHT22;26359;48.750;9.314;2023-11-21T13:30:20;12.40;99.90
40676;DHT22;26359;48.750;9.314;2023-11-21T13:32:53;12.30;99.90
40676;DHT22;26359;48.750;9.314;2023-11-21T13:35:23;12.30;99.90
40676;DHT22;26359;48.750;9.314;2023-11-21T13:37:57;12.10;99.90
40676;DHT22;26359;48.750;9.314;2023-11-21T13:40:25;12.10;99.90
40676;DHT22;26359;48.750;9.314;2023-11-21T13:42:56;11.90;99.90
40676;DHT22;26359;48.750;9.314;2023-11-21T13:45:25;11.70;99.90
40676;DHT22;26359;48.750;9.314;2023-11-21T13:47:53;11.50;99.90
40676;DHT22;26359;48.750;9.314;2023-11-21T13:50:26;11.30;99.90
40676;DHT22;26359;48.750;9.314;2023-11-21T13:52:58;11.20;99.90
40676;DHT22;26359;48.750;9.314;2023-11-21T13:55:28;11.00;99.90
40676;DHT22;26359;48.750;9.314;2023-11-21T13:57:54;10.90;99.90
40676;DHT22;26359;48.750;9.314;2023-11-21T14:00:19;10.80;99.90
40676;DHT22;26359;48.750;9.314;2023-11-21T14:03:04;10.70;99.90
40676;DHT22;26359;48.750;9.314;2023-11-21T14:05:34;10.60;99.90
40676;DHT22;26359;48.750;9.314;2023-11-21T14:08:00;10.60;99.90
40676;DHT22;26359;48.750;9.314;2023-11-21T14:10:33;10.50;99.90
40676;DHT22;26359;48.750;9.314;2023-11-21T14:13:06;10.50;99.90
40676;DHT22;26359;48.750;9.314;2023-11-21T14:15:32;10.40;99.90
40676;DHT22;26359;48.750;9.314;2023-11-21T14:17:59;10.40;99.90
40676;DHT22;26359;48.750;9.314;2023-11-21T14:20:25;10.30;99.90
40676;DHT22;26359;48.750;9.314;2023-11-21T14:22:51;10.30;99.90
40676;DHT22;26359;48.750;9.314;2023-11-21T14:25:17;10.20;99.90
40676;DHT22;26359;48.750;9.314;2023-11-21T14:27:43;10.10;99.90
40676;DHT22;26359;48.750;9.314;2023-11-21T14:30:09;10.10;99.90
40676;DHT22;26359;48.750;9.314;2023-11-21T14:32:37;10.00;99.90
40676;DHT22;26359;48.750;9.314;2023-11-21T14:35:03;10.00;99.90
40676;DHT22;26359;48.750;9.314;2023-11-21T14:37:29;10.00;99.90
40676;DHT22;26359;48.750;9.314;2023-11-21T14:39:55;9.90;99.90
40676;DHT22;26359;48.750;9.314;2023-11-21T14:42:21;9.90;99.90
40676;DHT22;26359;48.750;9.314;2023-11-21T14:44:50;9.90;99.90
40676;DHT22;26359;48.750;9.314;2023-11-21T14:47:17;9.90;99.90
40676;DHT22;26359;48.750;9.314;2023-11-21T14:49:50;9.80;99.90
40676;DHT22;26359;48.750;9.314;2023-11-21T14:52:19;9.80;99.90
40676;DHT22;26359;48.750;9.314;2023-11-21T14:55:04;9.80;99.90
40676;DHT22;26359;48.750;9.314;2023-11-21T14:57:49;9.70;99.90
40676;DHT22;26359;48.750;9.314;2023-11-21T15:00:19;9.70;99.90
40676;DHT22;26359;48.750;9.314;2023-11-21T15:03:01;9.70;99.90
40676;DHT22;26359;48.750;9.314;2023-11-21T15:05:27;9.60;99.90
40676;DHT22;26359;48.750;9.314;2023-11-21T15:07:56;9.60;99.90
40676;DHT22;26359;48.750;9.314;2023-11-21T15:10:30;9.50;99.90
40676;DHT22;26359;48.750;9.314;2023-11-21T15:13:10;9.50;99.90
40676;DHT22;26359;48.750;9.314;2023-11-21T15:15:36;9.50;99.90
40676;DHT22;26359;48.750;9.314;2023-11-21T15:18:02;9.50;99.90
40676;DHT22;26359;48.750;9.314;2023-11-21T15:20:28;9.40;99.90
40676;DHT22;26359;48.750;9.314;2023-11-21T15:22:54;9.40;99.90
40676;DHT22;26359;48.750;9.314;2023-11-21T15:25:19;9.40;99.90
40676;DHT22;26359;48.750;9.314;2023-11-21T15:27:45;9.40;99.90
40676;DHT22;26359;48.750;9.314;2023-11-21T15:30:15;9.40;99.90
40676;DHT22;26359;48.750;9.314;2023-11-21T15:32:41;9.40;99.90
40676;DHT22;26359;48.750;9.314;2023-11-21T15:35:07;9.40;99.90
40676;DHT22;26359;48.750;9.314;2023-11-21T15:37:37;9.30;99.90
40676;DHT22;26359;48.750;9.314;2023-11-21T15:40:03;9.30;99.90
40676;DHT22;26359;48.750;9.314;2023-11-21T15:42:31;9.30;99.90
40676;DHT22;26359;48.750;9.314;2023-11-21T15:44:57;9.30;99.90
40676;DHT22;26359;48.750;9.314;2023-11-21T15:47:22;9.30;99.90
40676;DHT22;26359;48.750;9.314;2023-11-21T15:49:48;9.30;99.90
40676;DHT22;26359;48.750;9.314;2023-11-21T15:52:13;9.30;99.90
40676;DHT22;26359;48.750;9.314;2023-11-21T15:54:40;9.30;99.90
40676;DHT22;26359;48.750;9.314;2023-11-21T15:57:05;9.20;99.90